sensor_id;sensor_type;location;lat;lon;timestamp;P1;durP1;ratioP1;P2;durP2;ratioP2
4434;SDS011;46552;52.150;8.428;2023-02-28T00:02:15;16.77;;;7.83;;
4434;SDS011;46552;52.150;8.428;2023-02-28T00:04:43;16.10;;;7.73;;
4434;SDS011;46552;52.150;8.428;2023-02-28T00:07:11;18.17;;;9.27;;
4434;SDS011;46552;52.150;8.428;2023-02-28T00:09:38;22.93;;;10.00;;
4434;SDS011;46552;52.150;8.428;2023-02-28T00:12:05;21.07;;;9.73;;
4434;SDS011;46552;52.150;8.428;2023-02-28T00:14:35;27.43;;;12.33;;
4434;SDS011;46552;52.150;8.428;2023-02-28T00:17:04;24.50;;;9.90;;
4434;SDS011;46552;52.150;8.428;2023-02-28T00:19:30;19.40;;;8.93;;
4434;SDS011;46552;52.150;8.428;2023-02-28T00:21:59;26.33;;;9.47;;
4434;SDS011;46552;52.150;8.428;2023-02-28T00:24:26;21.20;;;11.23;;
4434;SDS011;46552;52.150;8.428;2023-02-28T00:26:54;19.43;;;9.80;;
4434;SDS011;46552;52.150;8.428;2023-02-28T00:29:21;22.77;;;9.50;;
4434;SDS011;46552;52.150;8.428;2023-02-28T00:31:49;29.17;;;9.97;;
4434;SDS011;46552;52.150;8.428;2023-02-28T00:34:19;15.70;;;9.47;;
4434;SDS011;46552;52.150;8.428;2023-02-28T00:36:47;19.40;;;9.30;;
4434;SDS011;46552;52.150;8.428;2023-02-28T00:39:15;17.83;;;8.83;;
4434;SDS011;46552;52.150;8.428;2023-02-28T00:41:42;25.60;;;9.27;;
4434;SDS011;46552;52.150;8.428;2023-02-28T00:44:09;27.83;;;9.20;;
4434;SDS011;46552;52.150;8.428;2023-02-28T00:46:37;18.33;;;10.30;;
4434;SDS011;46552;52.150;8.428;2023-02-28T00:49:04;24.80;;;8.70;;
4434;SDS011;46552;52.150;8.428;2023-02-28T00:51:33;17.60;;;9.43;;
4434;SDS011;46552;52.150;8.428;2023-02-28T00:54:00;17.93;;;9.20;;
4434;SDS011;46552;52.150;8.428;2023-02-28T00:56:27;20.53;;;9.50;;
4434;SDS011;46552;52.150;8.428;2023-02-28T00:58:54;13.00;;;8.17;;
4434;SDS011;46552;52.150;8.428;2023-02-28T01:01:22;17.90;;;10.40;;
4434;SDS011;46552;52.150;8.428;2023-02-28T01:03:49;21.87;;;8.90;;
4434;SDS011;46552;52.150;8.428;2023-02-28T01:06:16;16.57;;;8.57;;
4434;SDS011;46552;52.150;8.428;2023-02-28T01:08:46;16.10;;;8.20;;
4434;SDS011;46552;52.150;8.428;2023-02-28T01:11:15;19.93;;;7.77;;
4434;SDS011;46552;52.150;8.428;2023-02-28T01:13:43;23.73;;;9.50;;
4434;SDS011;46552;52.150;8.428;2023-02-28T01:16:12;21.63;;;8.73;;
4434;SDS011;46552;52.150;8.428;2023-02-28T01:18:39;14.90;;;7.50;;
4434;SDS011;46552;52.150;8.428;2023-02-28T01:21:07;18.90;;;7.97;;
4434;SDS011;46552;52.150;8.428;2023-02-28T01:23:36;14.33;;;8.13;;
4434;SDS011;46552;52.150;8.428;2023-02-28T01:26:06;15.20;;;8.73;;
4434;SDS011;46552;52.150;8.428;2023-02-28T01:28:33;16.10;;;7.63;;
4434;SDS011;46552;52.150;8.428;2023-02-28T01:31:00;19.17;;;8.03;;
4434;SDS011;46552;52.150;8.428;2023-02-28T01:33:29;13.47;;;6.90;;
4434;SDS011;46552;52.150;8.428;2023-02-28T01:35:58;13.00;;;6.60;;
4434;SDS011;46552;52.150;8.428;2023-02-28T01:38:26;17.63;;;8.43;;
4434;SDS011;46552;52.150;8.428;2023-02-28T01:40:53;30.10;;;8.90;;
4434;SDS011;46552;52.150;8.428;2023-02-28T01:43:25;21.83;;;8.37;;
4434;SDS011;46552;52.150;8.428;2023-02-28T01:45:54;16.87;;;8.20;;
4434;SDS011;46552;52.150;8.428;2023-02-28T01:48:24;17.13;;;8.47;;
4434;SDS011;46552;52.150;8.428;2023-02-28T01:50:54;25.90;;;8.17;;
4434;SDS011;46552;52.150;8.428;2023-02-28T01:53:26;16.87;;;8.00;;
4434;SDS011;46552;52.150;8.428;2023-02-28T01:55:58;13.17;;;7.60;;
4434;SDS011;46552;52.150;8.428;2023-02-28T01:58:27;14.00;;;7.30;;
4434;SDS011;46552;52.150;8.428;2023-02-28T02:00:54;16.53;;;8.30;;
4434;SDS011;46552;52.150;8.428;2023-02-28T02:03:22;22.30;;;8.50;;
4434;SDS011;46552;52.150;8.428;2023-02-28T02:05:50;21.83;;;8.53;;
4434;SDS011;46552;52.150;8.428;2023-02-28T02:08:18;22.40;;;8.70;;
4434;SDS011;46552;52.150;8.428;2023-02-28T02:10:48;14.00;;;9.23;;
4434;SDS011;46552;52.150;8.428;2023-02-28T02:13:33;19.73;;;7.27;;
4434;SDS011;46552;52.150;8.428;2023-02-28T02:16:22;15.93;;;8.83;;
4434;SDS011;46552;52.150;8.428;2023-02-28T02:19:01;17.57;;;7.97;;
4434;SDS011;46552;52.150;8.428;2023-02-28T02:21:47;17.83;;;8.80;;
4434;SDS011;46552;52.150;8.428;2023-02-28T02:24:58;13.73;;;7.67;;
4434;SDS011;46552;52.150;8.428;2023-02-28T02:27:50;11.73;;;7.67;;
4434;SDS011;46552;52.150;8.428;2023-02-28T02:30:40;23.03;;;9.27;;
4434;SDS011;46552;52.150;8.428;2023-02-28T02:36:26;13.40;;;7.57;;
4434;SDS011;46552;52.150;8.428;2023-02-28T02:38:57;18.00;;;9.50;;
4434;SDS011;46552;52.150;8.428;2023-02-28T02:41:32;24.67;;;8.00;;
4434;SDS011;46552;52.150;8.428;2023-02-28T02:44:04;12.40;;;7.70;;
4434;SDS011;46552;52.150;8.428;2023-02-28T02:46:37;21.60;;;8.10;;
4434;SDS011;46552;52.150;8.428;2023-02-28T02:49:08;15.40;;;7.70;;
4434;SDS011;46552;52.150;8.428;2023-02-28T02:51:40;18.53;;;8.60;;
4434;SDS011;46552;52.150;8.428;2023-02-28T02:54:11;16.40;;;7.40;;
4434;SDS011;46552;52.150;8.428;2023-02-28T02:56:41;16.23;;;8.30;;
4434;SDS011;46552;52.150;8.428;2023-02-28T02:59:11;16.57;;;9.00;;
4434;SDS011;46552;52.150;8.428;2023-02-28T03:01:40;15.87;;;8.50;;
4434;SDS011;46552;52.150;8.428;2023-02-28T03:04:09;15.60;;;8.30;;
4434;SDS011;46552;52.150;8.428;2023-02-28T03:06:41;12.77;;;6.80;;
4434;SDS011;46552;52.150;8.428;2023-02-28T03:09:09;14.00;;;7.80;;
4434;SDS011;46552;52.150;8.428;2023-02-28T03:11:37;17.63;;;7.70;;
4434;SDS011;46552;52.150;8.428;2023-02-28T03:14:11;16.73;;;8.10;;
4434;SDS011;46552;52.150;8.428;2023-02-28T03:16:59;22.37;;;7.77;;
4434;SDS011;46552;52.150;8.428;2023-02-28T03:19:54;14.00;;;7.60;;
4434;SDS011;46552;52.150;8.428;2023-02-28T03:25:29;13.70;;;7.73;;
4434;SDS011;46552;52.150;8.428;2023-02-28T03:28:01;15.83;;;6.90;;
4434;SDS011;46552;52.150;8.428;2023-02-28T03:30:35;15.00;;;8.23;;
4434;SDS011;46552;52.150;8.428;2023-02-28T03:33:08;14.23;;;8.33;;
4434;SDS011;46552;52.150;8.428;2023-02-28T03:35:40;20.53;;;8.47;;
4434;SDS011;46552;52.150;8.428;2023-02-28T03:38:13;13.00;;;6.80;;
4434;SDS011;46552;52.150;8.428;2023-02-28T03:40:46;13.13;;;7.50;;
4434;SDS011;46552;52.150;8.428;2023-02-28T03:43:18;13.73;;;8.90;;
4434;SDS011;46552;52.150;8.428;2023-02-28T03:45:49;16.33;;;8.50;;
4434;SDS011;46552;52.150;8.428;2023-02-28T03:48:19;14.10;;;7.03;;
4434;SDS011;46552;52.150;8.428;2023-02-28T03:50:51;15.50;;;8.20;;
4434;SDS011;46552;52.150;8.428;2023-02-28T03:53:25;23.23;;;8.50;;
4434;SDS011;46552;52.150;8.428;2023-02-28T03:55:56;17.53;;;7.70;;
4434;SDS011;46552;52.150;8.428;2023-02-28T03:58:27;14.50;;;8.17;;
4434;SDS011;46552;52.150;8.428;2023-02-28T04:01:01;20.40;;;8.10;;
4434;SDS011;46552;52.150;8.428;2023-02-28T04:03:33;15.17;;;8.03;;
4434;SDS011;46552;52.150;8.428;2023-02-28T04:06:01;12.47;;;7.80;;
4434;SDS011;46552;52.150;8.428;2023-02-28T04:08:31;16.90;;;9.47;;
4434;SDS011;46552;52.150;8.428;2023-02-28T04:11:00;18.20;;;8.20;;
4434;SDS011;46552;52.150;8.428;2023-02-28T04:13:31;19.00;;;9.17;;
4434;SDS011;46552;52.150;8.428;2023-02-28T04:15:59;14.00;;;7.20;;
4434;SDS011;46552;52.150;8.428;2023-02-28T04:18:26;20.10;;;8.93;;
4434;SDS011;46552;52.150;8.428;2023-02-28T04:20:55;15.27;;;7.13;;
4434;SDS011;46552;52.150;8.428;2023-02-28T04:23:22;16.70;;;7.40;;
4434;SDS011;46552;52.150;8.428;2023-02-28T04:25:54;18.43;;;8.63;;
4434;SDS011;46552;52.150;8.428;2023-02-28T04:28:21;16.60;;;7.87;;
4434;SDS011;46552;52.150;8.428;2023-02-28T04:30:53;11.20;;;7.43;;
4434;SDS011;46552;52.150;8.428;2023-02-28T04:33:21;15.93;;;6.80;;
4434;SDS011;46552;52.150;8.428;2023-02-28T04:35:57;16.93;;;8.80;;
4434;SDS011;46552;52.150;8.428;2023-02-28T04:38:24;13.30;;;7.20;;
4434;SDS011;46552;52.150;8.428;2023-02-28T04:40:53;15.53;;;8.60;;
4434;SDS011;46552;52.150;8.428;2023-02-28T04:43:24;12.10;;;8.40;;
4434;SDS011;46552;52.150;8.428;2023-02-28T04:45:52;17.53;;;8.67;;
4434;SDS011;46552;52.150;8.428;2023-02-28T04:48:21;14.53;;;7.50;;
4434;SDS011;46552;52.150;8.428;2023-02-28T04:50:49;15.40;;;8.20;;
4434;SDS011;46552;52.150;8.428;2023-02-28T04:53:17;17.60;;;9.20;;
4434;SDS011;46552;52.150;8.428;2023-02-28T04:55:44;16.10;;;8.50;;
4434;SDS011;46552;52.150;8.428;2023-02-28T04:58:13;17.37;;;9.27;;
4434;SDS011;46552;52.150;8.428;2023-02-28T05:00:41;17.03;;;7.73;;
4434;SDS011;46552;52.150;8.428;2023-02-28T05:03:08;15.00;;;9.10;;
4434;SDS011;46552;52.150;8.428;2023-02-28T05:05:35;18.23;;;8.80;;
4434;SDS011;46552;52.150;8.428;2023-02-28T05:08:03;18.20;;;8.73;;
4434;SDS011;46552;52.150;8.428;2023-02-28T05:10:30;15.37;;;7.63;;
4434;SDS011;46552;52.150;8.428;2023-02-28T05:12:58;16.90;;;7.47;;
4434;SDS011;46552;52.150;8.428;2023-02-28T05:15:27;13.60;;;7.83;;
4434;SDS011;46552;52.150;8.428;2023-02-28T05:17:55;14.93;;;8.20;;
4434;SDS011;46552;52.150;8.428;2023-02-28T05:20:22;18.53;;;9.07;;
4434;SDS011;46552;52.150;8.428;2023-02-28T05:22:49;16.67;;;8.50;;
4434;SDS011;46552;52.150;8.428;2023-02-28T05:25:18;15.17;;;8.50;;
4434;SDS011;46552;52.150;8.428;2023-02-28T05:27:48;20.67;;;9.80;;
4434;SDS011;46552;52.150;8.428;2023-02-28T05:30:16;24.23;;;9.97;;
4434;SDS011;46552;52.150;8.428;2023-02-28T05:32:48;25.20;;;10.83;;
4434;SDS011;46552;52.150;8.428;2023-02-28T05:35:18;16.17;;;10.47;;
4434;SDS011;46552;52.150;8.428;2023-02-28T05:37:45;14.70;;;8.53;;
4434;SDS011;46552;52.150;8.428;2023-02-28T05:40:12;23.60;;;8.33;;
4434;SDS011;46552;52.150;8.428;2023-02-28T05:42:40;15.70;;;8.67;;
4434;SDS011;46552;52.150;8.428;2023-02-28T05:45:08;21.97;;;9.97;;
4434;SDS011;46552;52.150;8.428;2023-02-28T05:47:36;18.77;;;9.80;;
4434;SDS011;46552;52.150;8.428;2023-02-28T05:50:05;16.20;;;9.50;;
4434;SDS011;46552;52.150;8.428;2023-02-28T05:52:34;16.70;;;9.93;;
4434;SDS011;46552;52.150;8.428;2023-02-28T05:55:02;13.60;;;8.00;;
4434;SDS011;46552;52.150;8.428;2023-02-28T05:57:30;23.43;;;10.27;;
4434;SDS011;46552;52.150;8.428;2023-02-28T05:59:57;17.00;;;8.60;;
4434;SDS011;46552;52.150;8.428;2023-02-28T06:02:25;18.63;;;9.87;;
4434;SDS011;46552;52.150;8.428;2023-02-28T06:04:53;19.27;;;11.17;;
4434;SDS011;46552;52.150;8.428;2023-02-28T06:07:22;13.10;;;8.20;;
4434;SDS011;46552;52.150;8.428;2023-02-28T06:09:49;18.20;;;8.43;;
4434;SDS011;46552;52.150;8.428;2023-02-28T06:12:16;15.50;;;9.40;;
4434;SDS011;46552;52.150;8.428;2023-02-28T06:14:44;21.67;;;9.53;;
4434;SDS011;46552;52.150;8.428;2023-02-28T06:17:11;17.93;;;8.93;;
4434;SDS011;46552;52.150;8.428;2023-02-28T06:19:38;16.07;;;8.93;;
4434;SDS011;46552;52.150;8.428;2023-02-28T06:22:06;13.43;;;8.97;;
4434;SDS011;46552;52.150;8.428;2023-02-28T06:24:35;14.73;;;8.80;;
4434;SDS011;46552;52.150;8.428;2023-02-28T06:27:02;13.33;;;8.00;;
4434;SDS011;46552;52.150;8.428;2023-02-28T06:29:30;12.97;;;8.07;;
4434;SDS011;46552;52.150;8.428;2023-02-28T06:31:57;22.63;;;9.20;;
4434;SDS011;46552;52.150;8.428;2023-02-28T06:34:24;18.13;;;8.33;;
4434;SDS011;46552;52.150;8.428;2023-02-28T06:36:52;15.73;;;9.20;;
4434;SDS011;46552;52.150;8.428;2023-02-28T06:39:19;17.23;;;9.77;;
4434;SDS011;46552;52.150;8.428;2023-02-28T06:41:48;17.43;;;8.93;;
4434;SDS011;46552;52.150;8.428;2023-02-28T06:44:17;16.90;;;9.53;;
4434;SDS011;46552;52.150;8.428;2023-02-28T06:46:44;15.90;;;9.27;;
4434;SDS011;46552;52.150;8.428;2023-02-28T06:49:12;24.33;;;10.10;;
4434;SDS011;46552;52.150;8.428;2023-02-28T06:51:39;17.63;;;9.50;;
4434;SDS011;46552;52.150;8.428;2023-02-28T06:54:10;16.77;;;9.37;;
4434;SDS011;46552;52.150;8.428;2023-02-28T06:56:37;18.80;;;9.53;;
4434;SDS011;46552;52.150;8.428;2023-02-28T06:59:06;19.33;;;9.07;;
4434;SDS011;46552;52.150;8.428;2023-02-28T07:01:33;17.50;;;8.80;;
4434;SDS011;46552;52.150;8.428;2023-02-28T07:04:00;14.57;;;9.47;;
4434;SDS011;46552;52.150;8.428;2023-02-28T07:06:29;15.57;;;9.97;;
4434;SDS011;46552;52.150;8.428;2023-02-28T07:08:56;24.80;;;11.50;;
4434;SDS011;46552;52.150;8.428;2023-02-28T07:11:25;26.73;;;11.40;;
4434;SDS011;46552;52.150;8.428;2023-02-28T07:13:53;29.23;;;10.80;;
4434;SDS011;46552;52.150;8.428;2023-02-28T07:16:23;14.83;;;9.23;;
4434;SDS011;46552;52.150;8.428;2023-02-28T07:18:52;24.30;;;9.63;;
4434;SDS011;46552;52.150;8.428;2023-02-28T07:21:20;17.60;;;9.00;;
4434;SDS011;46552;52.150;8.428;2023-02-28T07:23:49;23.00;;;9.87;;
4434;SDS011;46552;52.150;8.428;2023-02-28T07:26:17;18.37;;;8.77;;
4434;SDS011;46552;52.150;8.428;2023-02-28T07:28:46;26.33;;;9.50;;
4434;SDS011;46552;52.150;8.428;2023-02-28T07:31:14;12.97;;;7.80;;
4434;SDS011;46552;52.150;8.428;2023-02-28T07:33:43;18.07;;;9.27;;
4434;SDS011;46552;52.150;8.428;2023-02-28T07:36:12;15.00;;;8.73;;
4434;SDS011;46552;52.150;8.428;2023-02-28T07:38:42;16.90;;;8.87;;
4434;SDS011;46552;52.150;8.428;2023-02-28T07:41:10;21.80;;;9.23;;
4434;SDS011;46552;52.150;8.428;2023-02-28T07:43:37;15.87;;;9.07;;
4434;SDS011;46552;52.150;8.428;2023-02-28T07:46:05;13.50;;;8.23;;
4434;SDS011;46552;52.150;8.428;2023-02-28T07:48:34;19.97;;;8.57;;
4434;SDS011;46552;52.150;8.428;2023-02-28T07:51:03;20.67;;;9.30;;
4434;SDS011;46552;52.150;8.428;2023-02-28T07:53:31;14.30;;;7.50;;
4434;SDS011;46552;52.150;8.428;2023-02-28T07:55:59;19.07;;;9.17;;
4434;SDS011;46552;52.150;8.428;2023-02-28T07:58:28;12.37;;;8.07;;
4434;SDS011;46552;52.150;8.428;2023-02-28T08:00:56;23.13;;;8.50;;
4434;SDS011;46552;52.150;8.428;2023-02-28T08:03:23;15.73;;;8.47;;
4434;SDS011;46552;52.150;8.428;2023-02-28T08:05:51;16.33;;;8.83;;
4434;SDS011;46552;52.150;8.428;2023-02-28T08:08:20;18.00;;;9.60;;
4434;SDS011;46552;52.150;8.428;2023-02-28T08:10:47;22.13;;;8.97;;
4434;SDS011;46552;52.150;8.428;2023-02-28T08:13:15;24.60;;;8.57;;
4434;SDS011;46552;52.150;8.428;2023-02-28T08:15:43;15.70;;;9.03;;
4434;SDS011;46552;52.150;8.428;2023-02-28T08:18:10;16.53;;;7.90;;
4434;SDS011;46552;52.150;8.428;2023-02-28T08:20:38;13.63;;;6.13;;
4434;SDS011;46552;52.150;8.428;2023-02-28T08:23:05;15.03;;;7.93;;
4434;SDS011;46552;52.150;8.428;2023-02-28T08:25:33;12.80;;;7.67;;
4434;SDS011;46552;52.150;8.428;2023-02-28T08:28:01;17.70;;;6.70;;
4434;SDS011;46552;52.150;8.428;2023-02-28T08:30:28;12.60;;;6.83;;
4434;SDS011;46552;52.150;8.428;2023-02-28T08:32:56;12.53;;;6.30;;
4434;SDS011;46552;52.150;8.428;2023-02-28T08:35:23;11.57;;;6.17;;
4434;SDS011;46552;52.150;8.428;2023-02-28T08:37:51;10.20;;;5.27;;
4434;SDS011;46552;52.150;8.428;2023-02-28T08:40:18;8.43;;;5.40;;
4434;SDS011;46552;52.150;8.428;2023-02-28T08:42:47;7.70;;;5.67;;
4434;SDS011;46552;52.150;8.428;2023-02-28T08:45:14;10.00;;;5.33;;
4434;SDS011;46552;52.150;8.428;2023-02-28T08:47:42;13.37;;;6.07;;
4434;SDS011;46552;52.150;8.428;2023-02-28T08:50:09;8.97;;;5.50;;
4434;SDS011;46552;52.150;8.428;2023-02-28T08:52:41;9.17;;;5.93;;
4434;SDS011;46552;52.150;8.428;2023-02-28T08:55:09;15.80;;;6.27;;
4434;SDS011;46552;52.150;8.428;2023-02-28T08:57:36;11.87;;;6.97;;
4434;SDS011;46552;52.150;8.428;2023-02-28T09:00:05;11.67;;;6.80;;
4434;SDS011;46552;52.150;8.428;2023-02-28T09:02:33;12.57;;;7.33;;
4434;SDS011;46552;52.150;8.428;2023-02-28T09:05:01;13.00;;;6.43;;
4434;SDS011;46552;52.150;8.428;2023-02-28T09:07:28;14.20;;;6.23;;
4434;SDS011;46552;52.150;8.428;2023-02-28T09:09:55;15.17;;;5.27;;
4434;SDS011;46552;52.150;8.428;2023-02-28T09:12:23;9.03;;;5.60;;
4434;SDS011;46552;52.150;8.428;2023-02-28T09:14:51;11.83;;;5.40;;
4434;SDS011;46552;52.150;8.428;2023-02-28T09:17:20;6.70;;;4.90;;
4434;SDS011;46552;52.150;8.428;2023-02-28T09:19:48;7.23;;;4.37;;
4434;SDS011;46552;52.150;8.428;2023-02-28T09:22:15;6.40;;;4.33;;
4434;SDS011;46552;52.150;8.428;2023-02-28T09:24:43;7.07;;;5.03;;
4434;SDS011;46552;52.150;8.428;2023-02-28T09:27:12;8.80;;;5.07;;
4434;SDS011;46552;52.150;8.428;2023-02-28T09:29:41;7.47;;;4.60;;
4434;SDS011;46552;52.150;8.428;2023-02-28T09:32:08;6.43;;;3.80;;
4434;SDS011;46552;52.150;8.428;2023-02-28T09:34:37;6.70;;;3.73;;
4434;SDS011;46552;52.150;8.428;2023-02-28T09:37:04;5.77;;;3.47;;
4434;SDS011;46552;52.150;8.428;2023-02-28T09:39:32;9.00;;;4.57;;
4434;SDS011;46552;52.150;8.428;2023-02-28T09:41:59;10.97;;;4.60;;
4434;SDS011;46552;52.150;8.428;2023-02-28T09:44:28;7.03;;;3.90;;
4434;SDS011;46552;52.150;8.428;2023-02-28T09:46:59;5.83;;;3.43;;
4434;SDS011;46552;52.150;8.428;2023-02-28T09:49:33;9.70;;;5.40;;
4434;SDS011;46552;52.150;8.428;2023-02-28T09:52:07;7.47;;;4.20;;
4434;SDS011;46552;52.150;8.428;2023-02-28T09:54:38;6.43;;;3.70;;
4434;SDS011;46552;52.150;8.428;2023-02-28T09:57:06;6.93;;;4.13;;
4434;SDS011;46552;52.150;8.428;2023-02-28T09:59:42;4.97;;;3.40;;
4434;SDS011;46552;52.150;8.428;2023-02-28T10:02:19;5.00;;;2.80;;
4434;SDS011;46552;52.150;8.428;2023-02-28T10:05:16;4.70;;;2.80;;
4434;SDS011;46552;52.150;8.428;2023-02-28T10:07:49;4.83;;;2.53;;
4434;SDS011;46552;52.150;8.428;2023-02-28T10:10:26;5.10;;;2.70;;
4434;SDS011;46552;52.150;8.428;2023-02-28T10:12:57;4.00;;;2.23;;
4434;SDS011;46552;52.150;8.428;2023-02-28T10:15:27;6.40;;;3.60;;
4434;SDS011;46552;52.150;8.428;2023-02-28T10:17:58;5.60;;;2.83;;
4434;SDS011;46552;52.150;8.428;2023-02-28T10:20:31;5.30;;;1.83;;
4434;SDS011;46552;52.150;8.428;2023-02-28T10:23:03;3.80;;;1.90;;
4434;SDS011;46552;52.150;8.428;2023-02-28T10:25:37;5.57;;;1.73;;
4434;SDS011;46552;52.150;8.428;2023-02-28T10:28:09;3.63;;;2.00;;
4434;SDS011;46552;52.150;8.428;2023-02-28T10:30:39;3.43;;;1.80;;
4434;SDS011;46552;52.150;8.428;2023-02-28T10:33:11;3.90;;;2.20;;
4434;SDS011;46552;52.150;8.428;2023-02-28T10:35:49;4.03;;;2.13;;
4434;SDS011;46552;52.150;8.428;2023-02-28T10:38:18;8.20;;;2.27;;
4434;SDS011;46552;52.150;8.428;2023-02-28T10:40:46;4.60;;;2.00;;
4434;SDS011;46552;52.150;8.428;2023-02-28T10:43:18;2.77;;;1.40;;
4434;SDS011;46552;52.150;8.428;2023-02-28T10:45:55;3.17;;;1.40;;
4434;SDS011;46552;52.150;8.428;2023-02-28T10:48:34;4.23;;;2.07;;
4434;SDS011;46552;52.150;8.428;2023-02-28T10:51:05;4.47;;;2.27;;
4434;SDS011;46552;52.150;8.428;2023-02-28T10:53:37;4.90;;;2.00;;
4434;SDS011;46552;52.150;8.428;2023-02-28T10:56:16;4.43;;;2.20;;
4434;SDS011;46552;52.150;8.428;2023-02-28T10:58:48;2.40;;;1.30;;
4434;SDS011;46552;52.150;8.428;2023-02-28T11:01:18;4.43;;;1.90;;
4434;SDS011;46552;52.150;8.428;2023-02-28T11:03:46;9.00;;;2.20;;
4434;SDS011;46552;52.150;8.428;2023-02-28T11:06:16;3.60;;;1.40;;
4434;SDS011;46552;52.150;8.428;2023-02-28T11:08:47;6.63;;;1.83;;
4434;SDS011;46552;52.150;8.428;2023-02-28T11:11:16;7.73;;;2.37;;
4434;SDS011;46552;52.150;8.428;2023-02-28T11:13:45;11.33;;;9.70;;
4434;SDS011;46552;52.150;8.428;2023-02-28T11:16:15;4.80;;;3.07;;
4434;SDS011;46552;52.150;8.428;2023-02-28T11:18:44;3.60;;;2.00;;
4434;SDS011;46552;52.150;8.428;2023-02-28T11:21:19;3.40;;;2.23;;
4434;SDS011;46552;52.150;8.428;2023-02-28T11:23:50;4.63;;;1.83;;
4434;SDS011;46552;52.150;8.428;2023-02-28T11:26:38;3.00;;;1.67;;
4434;SDS011;46552;52.150;8.428;2023-02-28T11:29:12;5.50;;;2.00;;
4434;SDS011;46552;52.150;8.428;2023-02-28T11:32:00;4.60;;;2.33;;
4434;SDS011;46552;52.150;8.428;2023-02-28T11:34:29;12.63;;;2.70;;
4434;SDS011;46552;52.150;8.428;2023-02-28T11:37:00;3.67;;;1.57;;
4434;SDS011;46552;52.150;8.428;2023-02-28T11:39:31;5.27;;;2.17;;
4434;SDS011;46552;52.150;8.428;2023-02-28T11:42:07;4.97;;;2.60;;
4434;SDS011;46552;52.150;8.428;2023-02-28T11:44:57;4.10;;;2.37;;
4434;SDS011;46552;52.150;8.428;2023-02-28T11:47:35;7.90;;;2.00;;
4434;SDS011;46552;52.150;8.428;2023-02-28T11:50:16;5.60;;;2.47;;
4434;SDS011;46552;52.150;8.428;2023-02-28T11:52:52;4.30;;;2.17;;
4434;SDS011;46552;52.150;8.428;2023-02-28T11:55:24;5.10;;;2.43;;
4434;SDS011;46552;52.150;8.428;2023-02-28T11:57:59;5.77;;;3.67;;
4434;SDS011;46552;52.150;8.428;2023-02-28T12:00:45;5.90;;;2.50;;
4434;SDS011;46552;52.150;8.428;2023-02-28T12:03:29;4.77;;;3.00;;
4434;SDS011;46552;52.150;8.428;2023-02-28T12:06:09;7.07;;;3.00;;
4434;SDS011;46552;52.150;8.428;2023-02-28T12:08:49;6.63;;;2.93;;
4434;SDS011;46552;52.150;8.428;2023-02-28T12:11:41;4.30;;;2.30;;
4434;SDS011;46552;52.150;8.428;2023-02-28T12:14:37;8.10;;;2.87;;
4434;SDS011;46552;52.150;8.428;2023-02-28T12:17:32;5.40;;;3.10;;
4434;SDS011;46552;52.150;8.428;2023-02-28T12:20:15;3.53;;;1.93;;
4434;SDS011;46552;52.150;8.428;2023-02-28T12:22:52;10.20;;;2.47;;
4434;SDS011;46552;52.150;8.428;2023-02-28T12:25:39;6.67;;;2.40;;
4434;SDS011;46552;52.150;8.428;2023-02-28T12:28:29;4.47;;;1.73;;
4434;SDS011;46552;52.150;8.428;2023-02-28T12:31:00;4.83;;;2.50;;
4434;SDS011;46552;52.150;8.428;2023-02-28T12:33:32;5.90;;;2.00;;
4434;SDS011;46552;52.150;8.428;2023-02-28T12:36:03;5.33;;;2.10;;
4434;SDS011;46552;52.150;8.428;2023-02-28T12:38:38;9.43;;;2.30;;
4434;SDS011;46552;52.150;8.428;2023-02-28T12:41:12;4.00;;;1.97;;
4434;SDS011;46552;52.150;8.428;2023-02-28T12:43:43;5.53;;;2.30;;
4434;SDS011;46552;52.150;8.428;2023-02-28T12:46:14;5.10;;;2.50;;
4434;SDS011;46552;52.150;8.428;2023-02-28T12:48:46;5.00;;;1.80;;
4434;SDS011;46552;52.150;8.428;2023-02-28T12:51:17;6.60;;;2.60;;
4434;SDS011;46552;52.150;8.428;2023-02-28T12:56:40;5.20;;;1.80;;
4434;SDS011;46552;52.150;8.428;2023-02-28T12:59:16;4.77;;;2.40;;
4434;SDS011;46552;52.150;8.428;2023-02-28T13:02:06;5.80;;;2.40;;
4434;SDS011;46552;52.150;8.428;2023-02-28T13:11:02;5.27;;;1.87;;
4434;SDS011;46552;52.150;8.428;2023-02-28T13:13:31;3.93;;;1.70;;
4434;SDS011;46552;52.150;8.428;2023-02-28T13:16:00;4.13;;;1.80;;
4434;SDS011;46552;52.150;8.428;2023-02-28T13:18:30;9.60;;;2.90;;
4434;SDS011;46552;52.150;8.428;2023-02-28T13:21:01;4.10;;;1.50;;
4434;SDS011;46552;52.150;8.428;2023-02-28T13:23:36;6.83;;;2.60;;
4434;SDS011;46552;52.150;8.428;2023-02-28T13:26:21;5.20;;;2.60;;
4434;SDS011;46552;52.150;8.428;2023-02-28T13:44:07;6.67;;;2.07;;
4434;SDS011;46552;52.150;8.428;2023-02-28T13:46:36;5.00;;;2.30;;
4434;SDS011;46552;52.150;8.428;2023-02-28T13:49:27;4.23;;;1.83;;
4434;SDS011;46552;52.150;8.428;2023-02-28T13:52:02;4.23;;;2.20;;
4434;SDS011;46552;52.150;8.428;2023-02-28T13:54:40;4.00;;;2.17;;
4434;SDS011;46552;52.150;8.428;2023-02-28T13:57:21;5.80;;;2.57;;
4434;SDS011;46552;52.150;8.428;2023-02-28T14:00:01;3.47;;;1.53;;
4434;SDS011;46552;52.150;8.428;2023-02-28T14:02:44;7.20;;;2.60;;
4434;SDS011;46552;52.150;8.428;2023-02-28T14:05:25;4.37;;;1.87;;
4434;SDS011;46552;52.150;8.428;2023-02-28T14:07:55;8.10;;;2.13;;
4434;SDS011;46552;52.150;8.428;2023-02-28T14:10:26;4.00;;;2.20;;
4434;SDS011;46552;52.150;8.428;2023-02-28T14:12:56;4.90;;;2.80;;
4434;SDS011;46552;52.150;8.428;2023-02-28T14:18:17;10.77;;;2.77;;
4434;SDS011;46552;52.150;8.428;2023-02-28T14:20:52;5.63;;;2.70;;
4434;SDS011;46552;52.150;8.428;2023-02-28T14:23:26;5.60;;;2.70;;
4434;SDS011;46552;52.150;8.428;2023-02-28T14:26:46;13.10;;;3.37;;
4434;SDS011;46552;52.150;8.428;2023-02-28T14:29:43;13.87;;;3.00;;
4434;SDS011;46552;52.150;8.428;2023-02-28T14:32:33;6.10;;;3.10;;
4434;SDS011;46552;52.150;8.428;2023-02-28T14:35:13;5.70;;;2.80;;
4434;SDS011;46552;52.150;8.428;2023-02-28T14:37:49;8.60;;;3.00;;
4434;SDS011;46552;52.150;8.428;2023-02-28T14:40:21;4.70;;;2.30;;
4434;SDS011;46552;52.150;8.428;2023-02-28T14:42:55;6.03;;;2.77;;
4434;SDS011;46552;52.150;8.428;2023-02-28T14:45:24;9.53;;;3.17;;
4434;SDS011;46552;52.150;8.428;2023-02-28T14:47:56;5.97;;;2.60;;
4434;SDS011;46552;52.150;8.428;2023-02-28T14:50:26;4.20;;;2.87;;
4434;SDS011;46552;52.150;8.428;2023-02-28T14:53:02;7.57;;;3.57;;
4434;SDS011;46552;52.150;8.428;2023-02-28T14:55:31;5.07;;;2.33;;
4434;SDS011;46552;52.150;8.428;2023-02-28T14:58:02;8.60;;;2.20;;
4434;SDS011;46552;52.150;8.428;2023-02-28T15:00:32;4.67;;;2.37;;
4434;SDS011;46552;52.150;8.428;2023-02-28T15:03:01;8.40;;;2.80;;
4434;SDS011;46552;52.150;8.428;2023-02-28T15:05:50;6.73;;;2.40;;
4434;SDS011;46552;52.150;8.428;2023-02-28T15:08:20;9.97;;;3.50;;
4434;SDS011;46552;52.150;8.428;2023-02-28T15:10:51;5.30;;;3.10;;
4434;SDS011;46552;52.150;8.428;2023-02-28T15:13:21;8.57;;;2.60;;
4434;SDS011;46552;52.150;8.428;2023-02-28T15:15:51;4.90;;;2.90;;
4434;SDS011;46552;52.150;8.428;2023-02-28T15:18:23;6.27;;;2.80;;
4434;SDS011;46552;52.150;8.428;2023-02-28T15:20:55;4.30;;;2.70;;
4434;SDS011;46552;52.150;8.428;2023-02-28T15:23:25;4.50;;;2.50;;
4434;SDS011;46552;52.150;8.428;2023-02-28T15:25:52;5.43;;;2.87;;
4434;SDS011;46552;52.150;8.428;2023-02-28T15:28:20;4.93;;;2.43;;
4434;SDS011;46552;52.150;8.428;2023-02-28T15:30:51;6.37;;;2.90;;
4434;SDS011;46552;52.150;8.428;2023-02-28T15:33:24;4.90;;;2.70;;
4434;SDS011;46552;52.150;8.428;2023-02-28T15:36:03;5.77;;;2.90;;
4434;SDS011;46552;52.150;8.428;2023-02-28T15:38:35;5.03;;;3.00;;
4434;SDS011;46552;52.150;8.428;2023-02-28T15:41:02;8.37;;;3.17;;
4434;SDS011;46552;52.150;8.428;2023-02-28T15:43:34;4.07;;;2.50;;
4434;SDS011;46552;52.150;8.428;2023-02-28T15:46:02;4.43;;;2.30;;
4434;SDS011;46552;52.150;8.428;2023-02-28T15:48:32;6.03;;;2.60;;
4434;SDS011;46552;52.150;8.428;2023-02-28T15:51:04;4.90;;;2.27;;
4434;SDS011;46552;52.150;8.428;2023-02-28T15:53:36;8.43;;;2.07;;